createdAt,value
2023-03-28T00:02:19.468Z,2.19
2023-03-28T00:04:49.906Z,2.19
2023-03-28T00:07:17.773Z,2.17
2023-03-28T00:09:46.211Z,2.15
2023-03-28T00:12:13.818Z,2.13
2023-03-28T00:14:42.725Z,2.13
2023-03-28T00:17:10.340Z,2.12
2023-03-28T00:19:40.832Z,2.12
2023-03-28T00:22:09.120Z,2.11
2023-03-28T00:24:41.004Z,2.08
2023-03-28T00:27:08.583Z,2.06
2023-03-28T00:29:36.414Z,2.03
2023-03-28T00:32:06.161Z,2.02
2023-03-28T00:34:34.141Z,2.03
2023-03-28T00:37:02.634Z,2.02
2023-03-28T00:39:31.603Z,2.00
2023-03-28T00:41:59.148Z,2.00
2023-03-28T00:44:26.729Z,2.01
2023-03-28T00:46:54.688Z,2.01
2023-03-28T00:49:22.451Z,2.00
2023-03-28T00:51:50.319Z,2.01
2023-03-28T00:54:18.917Z,2.01
2023-03-28T00:56:47.456Z,2.00
2023-03-28T00:59:15.536Z,1.98
2023-03-28T01:01:43.217Z,1.97
2023-03-28T01:04:10.855Z,1.95
2023-03-28T01:06:38.479Z,1.96
2023-03-28T01:09:06.679Z,1.96
2023-03-28T01:11:34.621Z,1.94
2023-03-28T01:14:04.383Z,1.92
2023-03-28T01:16:32.935Z,1.92
2023-03-28T01:19:02.287Z,1.90
2023-03-28T01:21:31.464Z,1.89
2023-03-28T01:24:11.949Z,1.87
2023-03-28T01:26:40.739Z,1.87
2023-03-28T01:29:08.357Z,1.86
2023-03-28T01:31:36.387Z,1.83
2023-03-28T01:34:05.234Z,1.83
2023-03-28T01:36:33.907Z,1.82
2023-03-28T01:39:02.821Z,1.82
2023-03-28T01:41:30.401Z,1.81
2023-03-28T01:43:58.452Z,1.79
2023-03-28T01:46:26.447Z,1.78
2023-03-28T01:48:54.069Z,1.78
2023-03-28T01:51:21.628Z,1.77
2023-03-28T01:53:49.156Z,1.77
2023-03-28T01:56:18.863Z,1.77
2023-03-28T01:58:47.192Z,1.76
2023-03-28T02:01:15.756Z,1.76
2023-03-28T02:03:43.386Z,1.75
2023-03-28T02:06:10.960Z,1.74
2023-03-28T02:08:38.633Z,1.74
2023-03-28T02:11:06.611Z,1.73
2023-03-28T02:13:34.229Z,1.72
2023-03-28T02:16:02.019Z,1.71
2023-03-28T02:18:30.093Z,1.70
2023-03-28T02:20:57.918Z,1.69
2023-03-28T02:23:26.547Z,1.70
2023-03-28T02:25:54.130Z,1.69
2023-03-28T02:28:21.730Z,1.68
2023-03-28T02:30:49.323Z,1.67
2023-03-28T02:33:17.895Z,1.67
2023-03-28T02:35:45.910Z,1.65
2023-03-28T02:38:13.554Z,1.66
2023-03-28T02:40:41.136Z,1.66
2023-03-28T02:43:09.223Z,1.64
2023-03-28T02:45:37.020Z,1.62
2023-03-28T02:48:05.066Z,1.60
2023-03-28T02:50:32.691Z,1.59
2023-03-28T02:53:00.303Z,1.56
2023-03-28T02:55:28.322Z,1.55
2023-03-28T02:57:55.966Z,1.55
2023-03-28T03:00:23.584Z,1.54
2023-03-28T03:02:51.689Z,1.51
2023-03-28T03:05:20.816Z,1.50
2023-03-28T03:07:49.423Z,1.47
2023-03-28T03:10:17.173Z,1.46
2023-03-28T03:12:45.185Z,1.44
2023-03-28T03:15:12.739Z,1.43
2023-03-28T03:17:40.385Z,1.37
2023-03-28T03:20:08.786Z,1.35
2023-03-28T03:22:36.561Z,1.34
2023-03-28T03:25:07.111Z,1.34
2023-03-28T03:27:35.182Z,1.34
2023-03-28T03:30:02.751Z,1.32
2023-03-28T03:32:30.537Z,1.32
2023-03-28T03:34:58.730Z,1.32
2023-03-28T03:37:26.767Z,1.30
2023-03-28T03:39:54.365Z,1.31
2023-03-28T03:42:22.025Z,1.29
2023-03-28T03:44:49.615Z,1.28
2023-03-28T03:47:19.159Z,1.28
2023-03-28T03:49:47.168Z,1.28
2023-03-28T03:52:14.737Z,1.27
2023-03-28T03:54:42.292Z,1.23
2023-03-28T03:57:10.027Z,1.21
2023-03-28T03:59:37.684Z,1.21
2023-03-28T04:02:05.709Z,1.20
2023-03-28T04:04:33.420Z,1.18
2023-03-28T04:07:02.509Z,1.16
2023-03-28T04:09:31.003Z,1.13
2023-03-28T04:11:58.592Z,1.12
2023-03-28T04:14:26.531Z,1.09
2023-03-28T04:16:54.127Z,1.09
2023-03-28T04:19:24.415Z,1.11
2023-03-28T04:21:52.737Z,1.11
2023-03-28T04:24:21.176Z,1.09
2023-03-28T04:26:51.272Z,1.08
2023-03-28T04:29:18.939Z,1.08
2023-03-28T04:31:50.171Z,1.06
2023-03-28T04:34:20.203Z,1.07
2023-03-28T04:36:47.805Z,1.07
2023-03-28T04:39:15.821Z,1.09
2023-03-28T04:41:46.407Z,1.10
2023-03-28T04:44:14.078Z,1.10
2023-03-28T04:46:41.699Z,1.09
2023-03-28T04:49:09.488Z,1.09
2023-03-28T04:51:37.450Z,1.09
2023-03-28T04:54:05.578Z,1.11
2023-03-28T04:56:33.347Z,1.11
2023-03-28T04:59:01.069Z,1.15
2023-03-28T05:01:28.869Z,1.16
2023-03-28T05:03:56.956Z,1.17
2023-03-28T05:06:27.614Z,1.19
2023-03-28T05:08:55.225Z,1.19
2023-03-28T05:11:22.834Z,1.19
2023-03-28T05:13:50.492Z,1.20
2023-03-28T05:16:18.802Z,1.21
2023-03-28T05:18:47.260Z,1.20
2023-03-28T05:21:14.858Z,1.21
2023-03-28T05:23:42.527Z,1.21
2023-03-28T05:26:10.610Z,1.21
2023-03-28T05:28:38.564Z,1.22
2023-03-28T05:31:07.675Z,1.22
2023-03-28T05:33:35.336Z,1.21
2023-03-28T05:36:03.255Z,1.22
2023-03-28T05:38:33.814Z,1.23
2023-03-28T05:41:02.288Z,1.24
2023-03-28T05:43:30.177Z,1.24
2023-03-28T05:45:57.827Z,1.25
2023-03-28T05:48:25.556Z,1.25
2023-03-28T05:50:53.457Z,1.24
2023-03-28T05:53:21.929Z,1.25
2023-03-28T05:55:49.595Z,1.27
2023-03-28T05:58:17.660Z,1.30
2023-03-28T06:00:46.765Z,1.33
2023-03-28T06:03:17.853Z,1.38
2023-03-28T06:05:46.190Z,1.43
2023-03-28T06:08:13.818Z,1.48
2023-03-28T06:10:42.341Z,1.54
2023-03-28T06:13:10.026Z,1.59
2023-03-28T06:15:38.098Z,1.66
2023-03-28T06:18:06.195Z,1.75
2023-03-28T06:20:34.019Z,1.83
2023-03-28T06:23:03.749Z,1.91
2023-03-28T06:25:31.531Z,2.01
2023-03-28T06:27:59.666Z,2.08
2023-03-28T06:30:27.703Z,2.17
2023-03-28T06:32:55.723Z,2.23
2023-03-28T06:35:23.621Z,2.30
2023-03-28T06:37:51.295Z,2.38
2023-03-28T06:40:19.221Z,2.46
2023-03-28T06:42:47.570Z,2.56
2023-03-28T06:45:16.115Z,2.63
2023-03-28T06:47:43.990Z,2.72
2023-03-28T06:50:11.724Z,2.78
2023-03-28T06:52:39.795Z,2.85
2023-03-28T06:55:08.328Z,2.92
2023-03-28T06:57:36.070Z,2.99
2023-03-28T07:00:04.090Z,3.05
2023-03-28T07:02:31.966Z,3.12
2023-03-28T07:04:59.908Z,3.21
2023-03-28T07:07:28.686Z,3.31
2023-03-28T07:09:56.737Z,3.37
2023-03-28T07:12:24.388Z,3.42
2023-03-28T07:14:52.118Z,3.50
2023-03-28T07:17:20.242Z,3.56
2023-03-28T07:19:51.602Z,3.64
2023-03-28T07:22:19.185Z,3.72
2023-03-28T07:24:46.972Z,3.79
2023-03-28T07:27:16.259Z,3.88
2023-03-28T07:29:45.741Z,4.01
2023-03-28T07:32:14.099Z,4.16
2023-03-28T07:34:42.035Z,4.29
2023-03-28T07:37:09.703Z,4.40
2023-03-28T07:39:40.155Z,4.51
2023-03-28T07:42:08.566Z,4.64
2023-03-28T07:44:36.821Z,4.71
2023-03-28T07:47:04.658Z,4.83
2023-03-28T07:49:32.358Z,4.96
2023-03-28T07:51:59.993Z,5.05
2023-03-28T07:54:28.620Z,5.13
2023-03-28T07:56:57.112Z,5.22
2023-03-28T07:59:24.773Z,5.29
2023-03-28T08:01:52.674Z,5.39
2023-03-28T08:04:20.862Z,5.47
2023-03-28T08:06:49.089Z,5.57
2023-03-28T08:09:17.366Z,5.67
2023-03-28T08:11:45.239Z,5.72
2023-03-28T08:14:13.254Z,5.76
2023-03-28T08:16:41.269Z,5.81
2023-03-28T08:19:11.772Z,5.86
2023-03-28T08:21:39.859Z,5.91
2023-03-28T08:24:08.055Z,5.99
2023-03-28T08:26:36.877Z,6.10
2023-03-28T08:29:05.179Z,6.23
2023-03-28T08:31:33.077Z,6.32
2023-03-28T08:34:01.362Z,6.36
2023-03-28T08:36:29.441Z,6.45
2023-03-28T08:39:00.914Z,6.54
2023-03-28T08:41:28.809Z,6.63
2023-03-28T08:43:56.503Z,6.76
2023-03-28T08:46:25.120Z,6.90
2023-03-28T08:48:52.898Z,7.03
2023-03-28T08:51:20.855Z,7.12
2023-03-28T08:53:48.789Z,7.34
2023-03-28T08:56:16.656Z,7.76
2023-03-28T08:58:47.819Z,8.13
2023-03-28T09:01:16.781Z,8.30
2023-03-28T09:03:44.799Z,8.65
2023-03-28T09:06:12.841Z,9.00
2023-03-28T09:08:40.923Z,9.17
2023-03-28T09:11:09.448Z,9.17
2023-03-28T09:13:37.307Z,9.07
2023-03-28T09:16:07.413Z,8.82
2023-03-28T09:18:37.139Z,8.65
2023-03-28T09:21:05.367Z,8.52
2023-03-28T09:23:33.834Z,8.68
2023-03-28T09:26:02.007Z,8.97
2023-03-28T09:28:29.801Z,9.09
2023-03-28T09:30:57.880Z,9.12
2023-03-28T09:33:25.710Z,9.13
2023-03-28T09:35:53.810Z,9.22
2023-03-28T09:38:21.762Z,9.24
2023-03-28T09:40:49.874Z,9.16
2023-03-28T09:43:17.993Z,9.04
2023-03-28T09:45:45.776Z,8.95
2023-03-28T09:48:14.388Z,8.90
2023-03-28T09:50:42.782Z,8.84
2023-03-28T09:53:10.687Z,8.82
2023-03-28T09:55:38.659Z,8.82
2023-03-28T09:58:06.775Z,8.80
2023-03-28T10:00:35.150Z,8.69
2023-03-28T10:03:03.563Z,8.65
2023-03-28T10:05:31.953Z,8.75
2023-03-28T10:07:59.810Z,8.98
2023-03-28T10:10:28.941Z,9.25
2023-03-28T10:12:57.213Z,9.32
2023-03-28T10:15:25.138Z,9.38
2023-03-28T10:17:53.223Z,9.45
2023-03-28T10:20:21.760Z,9.47
2023-03-28T10:22:50.289Z,9.40
2023-03-28T10:25:18.539Z,9.37
2023-03-28T10:27:46.544Z,9.56
2023-03-28T10:30:14.624Z,9.74
2023-03-28T10:32:42.493Z,9.60
2023-03-28T10:35:11.071Z,9.44
2023-03-28T10:37:39.705Z,9.32
2023-03-28T10:40:07.997Z,9.32
2023-03-28T10:42:35.878Z,9.55
2023-03-28T10:45:04.365Z,9.64
2023-03-28T10:47:33.184Z,9.72
2023-03-28T10:50:01.142Z,10.15
2023-03-28T10:52:29.073Z,11.12
2023-03-28T10:54:57.052Z,11.94
2023-03-28T10:57:25.019Z,12.11
2023-03-28T10:59:53.373Z,12.19
2023-03-28T11:02:21.834Z,12.03
2023-03-28T11:04:49.635Z,11.75
2023-03-28T11:07:18.031Z,11.49
2023-03-28T11:09:46.133Z,11.35
2023-03-28T11:12:22.914Z,11.53
2023-03-28T11:14:56.768Z,11.62
2023-03-28T11:17:24.661Z,11.58
2023-03-28T11:19:52.717Z,11.44
2023-03-28T11:22:21.141Z,11.27
2023-03-28T11:24:48.961Z,11.30
2023-03-28T11:27:17.478Z,11.15
2023-03-28T11:29:46.540Z,11.52
2023-03-28T11:32:14.353Z,12.09
2023-03-28T11:34:43.266Z,12.83
2023-03-28T11:37:11.493Z,13.56
2023-03-28T11:39:41.258Z,14.19
2023-03-28T11:42:09.073Z,14.93
2023-03-28T11:44:37.057Z,15.27
2023-03-28T11:47:05.077Z,15.40
2023-03-28T11:49:33.068Z,15.40
2023-03-28T11:52:01.539Z,15.05
2023-03-28T11:54:29.409Z,15.06
2023-03-28T11:56:57.480Z,15.03
2023-03-28T11:59:25.729Z,15.11
2023-03-28T12:01:53.678Z,15.06
2023-03-28T12:04:22.275Z,14.84
2023-03-28T12:07:02.269Z,15.14
2023-03-28T12:09:32.170Z,15.72
2023-03-28T12:12:00.175Z,15.70
2023-03-28T12:14:28.338Z,15.19
2023-03-28T12:16:57.012Z,15.25
2023-03-28T12:19:25.273Z,15.67
2023-03-28T12:21:54.573Z,15.89
2023-03-28T12:24:23.420Z,16.17
2023-03-28T12:26:53.076Z,16.23
2023-03-28T12:29:23.033Z,16.16
2023-03-28T12:31:51.288Z,15.92
2023-03-28T12:34:19.401Z,15.89
2023-03-28T12:36:49.397Z,15.93
2023-03-28T12:39:18.340Z,15.82
2023-03-28T12:41:46.260Z,15.75
2023-03-28T12:44:14.220Z,15.46
2023-03-28T12:46:46.671Z,15.28
2023-03-28T12:49:14.610Z,15.07
2023-03-28T12:51:42.827Z,14.57
2023-03-28T12:54:11.188Z,14.12
2023-03-28T12:56:39.169Z,13.76
2023-03-28T12:59:07.395Z,13.43
2023-03-28T13:01:35.330Z,13.12
2023-03-28T13:04:03.804Z,12.89
2023-03-28T13:06:33.056Z,12.60
2023-03-28T13:09:00.961Z,12.37
2023-03-28T13:11:29.352Z,12.22
2023-03-28T13:13:59.056Z,12.04
2023-03-28T13:16:28.070Z,11.85
2023-03-28T13:18:56.037Z,11.73
2023-03-28T13:21:23.877Z,11.70
2023-03-28T13:23:52.590Z,11.77
2023-03-28T13:26:22.784Z,11.80
2023-03-28T13:28:52.548Z,11.80
2023-03-28T13:31:20.744Z,11.88
2023-03-28T13:33:48.627Z,12.01
2023-03-28T13:36:16.607Z,12.20
2023-03-28T13:38:44.740Z,12.36
2023-03-28T13:41:13.508Z,12.48
2023-03-28T13:43:43.571Z,12.51
2023-03-28T13:46:11.936Z,12.52
2023-03-28T13:48:40.056Z,12.51
2023-03-28T13:51:08.345Z,12.61
2023-03-28T13:53:46.963Z,12.71
2023-03-28T13:56:16.683Z,12.74
2023-03-28T13:58:44.593Z,12.82
2023-03-28T14:01:12.679Z,12.91
2023-03-28T14:03:42.753Z,12.98
2023-03-28T14:06:11.453Z,13.08
2023-03-28T14:08:39.310Z,13.27
2023-03-28T14:11:07.264Z,13.25
2023-03-28T14:13:35.136Z,12.94
2023-03-28T14:16:03.719Z,12.59
2023-03-28T14:18:32.182Z,12.33
2023-03-28T14:21:00.664Z,12.15
2023-03-28T14:23:29.161Z,12.01
2023-03-28T14:25:57.167Z,11.98
2023-03-28T14:28:25.290Z,12.05
2023-03-28T14:30:53.280Z,12.15
2023-03-28T14:33:21.423Z,12.08
2023-03-28T14:35:49.612Z,11.93
2023-03-28T14:38:17.700Z,11.79
2023-03-28T14:40:45.972Z,11.75
2023-03-28T14:43:14.284Z,11.71
2023-03-28T14:45:42.754Z,11.79
2023-03-28T14:48:11.446Z,11.88
2023-03-28T14:50:39.362Z,12.07
2023-03-28T14:53:07.613Z,12.24
2023-03-28T14:55:37.310Z,12.43
2023-03-28T14:58:05.071Z,12.57
2023-03-28T15:00:33.623Z,12.73
2023-03-28T15:03:01.896Z,12.68
2023-03-28T15:05:30.610Z,12.52
2023-03-28T15:07:58.610Z,12.51
2023-03-28T15:10:26.608Z,12.78
2023-03-28T15:12:54.871Z,13.16
2023-03-28T15:15:23.007Z,13.52
2023-03-28T15:17:51.675Z,13.59
2023-03-28T15:20:19.673Z,13.60
2023-03-28T15:22:47.586Z,13.39
2023-03-28T15:25:15.810Z,13.10
2023-03-28T15:27:44.123Z,12.73
2023-03-28T15:30:12.608Z,12.50
2023-03-28T15:32:40.971Z,12.39
2023-03-28T15:35:11.442Z,12.50
2023-03-28T15:37:40.543Z,13.20
2023-03-28T15:40:09.687Z,14.30
2023-03-28T15:42:37.673Z,15.32
2023-03-28T15:45:05.579Z,15.89
2023-03-28T15:47:33.822Z,16.28
2023-03-28T15:50:03.726Z,16.28
2023-03-28T15:52:31.699Z,16.09
2023-03-28T15:55:00.120Z,16.28
2023-03-28T15:57:28.475Z,16.11
2023-03-28T15:59:56.519Z,15.85
2023-03-28T16:02:24.531Z,15.55
2023-03-28T16:04:52.364Z,15.04
2023-03-28T16:07:20.623Z,14.32
2023-03-28T16:09:51.551Z,13.51
2023-03-28T16:12:19.476Z,12.72
2023-03-28T16:14:47.475Z,12.05
2023-03-28T16:17:15.517Z,11.50
2023-03-28T16:19:46.056Z,11.06
2023-03-28T16:22:14.221Z,10.71
2023-03-28T16:24:42.248Z,10.43
2023-03-28T16:27:10.161Z,10.21
2023-03-28T16:29:38.132Z,10.01
2023-03-28T16:32:07.387Z,9.83
2023-03-28T16:34:35.366Z,9.68
2023-03-28T16:37:03.210Z,9.54
2023-03-28T16:39:31.236Z,9.44
2023-03-28T16:41:59.081Z,9.36
2023-03-28T16:44:27.463Z,9.30
2023-03-28T16:46:55.509Z,9.25
2023-03-28T16:49:23.319Z,9.21
2023-03-28T16:51:51.933Z,9.16
2023-03-28T16:54:20.272Z,9.13
2023-03-28T16:56:49.108Z,9.08
2023-03-28T16:59:17.061Z,9.03
2023-03-28T17:01:46.609Z,8.98
2023-03-28T17:04:14.513Z,8.92
2023-03-28T17:06:42.370Z,8.86
2023-03-28T17:09:10.795Z,8.81
2023-03-28T17:11:40.576Z,8.76
2023-03-28T17:14:08.636Z,8.73
2023-03-28T17:16:40.669Z,8.71
2023-03-28T17:19:08.669Z,8.67
2023-03-28T17:21:37.723Z,8.64
2023-03-28T17:24:11.559Z,8.61
2023-03-28T17:26:39.469Z,8.58
2023-03-28T17:29:07.892Z,8.55
2023-03-28T17:31:36.105Z,8.54
2023-03-28T17:34:04.923Z,8.51
2023-03-28T17:36:32.921Z,8.48
2023-03-28T17:39:02.193Z,8.45
2023-03-28T17:41:30.025Z,8.42
2023-03-28T17:43:58.223Z,8.39
2023-03-28T17:46:27.403Z,8.37
2023-03-28T17:48:55.395Z,8.35
2023-03-28T17:51:23.448Z,8.31
2023-03-28T17:53:51.648Z,8.29
2023-03-28T17:56:19.800Z,8.27
2023-03-28T17:58:48.210Z,8.24
2023-03-28T18:01:16.379Z,8.22
2023-03-28T18:03:44.575Z,8.20
2023-03-28T18:06:13.072Z,8.18
2023-03-28T18:08:41.130Z,8.16
2023-03-28T18:11:09.532Z,8.14
2023-03-28T18:13:37.468Z,8.12
2023-03-28T18:16:06.451Z,8.10
2023-03-28T18:18:34.423Z,8.08
2023-03-28T18:21:02.335Z,8.07
2023-03-28T18:23:30.797Z,8.07
2023-03-28T18:25:58.827Z,8.06
2023-03-28T18:28:27.029Z,8.03
2023-03-28T18:30:55.128Z,8.02
2023-03-28T18:33:23.140Z,8.00
2023-03-28T18:35:51.862Z,7.99
2023-03-28T18:38:19.862Z,7.96
2023-03-28T18:40:47.881Z,7.95
2023-03-28T18:43:16.042Z,7.94
2023-03-28T18:45:44.138Z,7.93
2023-03-28T18:48:13.377Z,7.91
2023-03-28T18:50:42.416Z,7.90
2023-03-28T18:53:10.538Z,7.89
2023-03-28T18:55:38.418Z,7.90
2023-03-28T18:58:08.398Z,7.89
2023-03-28T19:00:36.784Z,7.89
2023-03-28T19:03:04.820Z,7.89
2023-03-28T19:05:34.409Z,7.89
2023-03-28T19:08:02.321Z,7.89
2023-03-28T19:10:30.217Z,7.88
2023-03-28T19:12:58.395Z,7.87
2023-03-28T19:15:26.524Z,7.89
2023-03-28T19:17:54.472Z,7.88
2023-03-28T19:20:22.380Z,7.89
2023-03-28T19:22:50.362Z,7.92
2023-03-28T19:25:18.484Z,7.94
2023-03-28T19:27:49.786Z,7.96
2023-03-28T19:30:18.023Z,7.95
2023-03-28T19:32:46.116Z,7.95
2023-03-28T19:35:14.013Z,7.95
2023-03-28T19:37:42.335Z,7.95
2023-03-28T19:40:10.584Z,7.96
2023-03-28T19:42:38.572Z,7.96
2023-03-28T19:45:06.451Z,7.99
2023-03-28T19:47:34.326Z,7.99
2023-03-28T19:50:04.502Z,8.06
2023-03-28T19:52:32.377Z,8.11
2023-03-28T19:55:00.538Z,8.15
2023-03-28T19:57:28.765Z,8.21
2023-03-28T19:59:56.921Z,8.22
2023-03-28T20:02:24.775Z,8.23
2023-03-28T20:04:52.994Z,8.22
2023-03-28T20:07:21.655Z,8.15
2023-03-28T20:09:50.182Z,8.06
2023-03-28T20:12:18.102Z,7.97
2023-03-28T20:14:46.400Z,7.89
2023-03-28T20:17:14.193Z,7.72
2023-03-28T20:19:42.700Z,7.45
2023-03-28T20:22:10.565Z,7.20
2023-03-28T20:24:38.858Z,6.99
2023-03-28T20:27:07.565Z,6.82
2023-03-28T20:29:35.434Z,6.72
2023-03-28T20:32:05.149Z,6.66
2023-03-28T20:34:33.930Z,6.63
2023-03-28T20:37:03.683Z,6.62
2023-03-28T20:39:35.342Z,6.60
2023-03-28T20:42:05.920Z,6.58
2023-03-28T20:44:38.313Z,6.57
2023-03-28T20:47:06.417Z,6.56
2023-03-28T20:49:34.909Z,6.54
2023-03-28T20:52:02.880Z,6.53
2023-03-28T20:54:30.695Z,6.51
2023-03-28T20:56:59.352Z,6.51
2023-03-28T20:59:27.531Z,6.48
2023-03-28T21:01:56.572Z,6.43
2023-03-28T21:04:24.497Z,6.39
2023-03-28T21:06:52.481Z,6.34
2023-03-28T21:09:20.804Z,6.31
2023-03-28T21:11:49.900Z,6.29
2023-03-28T21:14:18.465Z,6.27
2023-03-28T21:16:47.610Z,6.27
2023-03-28T21:19:15.703Z,6.20
2023-03-28T21:21:43.863Z,6.08
2023-03-28T21:24:11.797Z,5.97
2023-03-28T21:26:40.105Z,5.87
2023-03-28T21:29:08.169Z,5.78
2023-03-28T21:31:37.341Z,5.70
2023-03-28T21:34:05.557Z,5.64
2023-03-28T21:36:33.623Z,5.58
2023-03-28T21:39:01.756Z,5.52
2023-03-28T21:41:29.786Z,5.46
2023-03-28T21:43:57.563Z,5.39
2023-03-28T21:46:25.495Z,5.37
2023-03-28T21:48:53.493Z,5.31
2023-03-28T21:51:21.700Z,5.29
2023-03-28T21:53:49.411Z,5.27
2023-03-28T21:56:17.132Z,5.26
2023-03-28T21:58:45.667Z,5.27
2023-03-28T22:01:13.756Z,5.27
2023-03-28T22:03:42.109Z,5.28
2023-03-28T22:06:09.878Z,5.29
2023-03-28T22:08:37.633Z,5.30
2023-03-28T22:11:05.864Z,5.33
2023-03-28T22:13:33.679Z,5.34
2023-03-28T22:16:01.731Z,5.36
2023-03-28T22:18:30.902Z,5.38
2023-03-28T22:21:02.869Z,5.39
2023-03-28T22:23:31.256Z,5.40
2023-03-28T22:25:59.011Z,5.40
2023-03-28T22:28:27.318Z,5.39
2023-03-28T22:30:55.090Z,5.39
2023-03-28T22:33:23.709Z,5.38
2023-03-28T22:35:51.945Z,5.37
2023-03-28T22:38:19.755Z,5.38
2023-03-28T22:40:47.778Z,5.39
2023-03-28T22:43:16.402Z,5.40
2023-03-28T22:45:44.208Z,5.39
2023-03-28T22:48:14.636Z,5.39
2023-03-28T22:50:44.216Z,5.40
2023-03-28T22:53:12.890Z,5.42
2023-03-28T22:55:40.605Z,5.41
2023-03-28T22:58:08.214Z,5.41
2023-03-28T23:00:36.399Z,5.40
2023-03-28T23:03:04.245Z,5.41
2023-03-28T23:05:32.854Z,5.43
2023-03-28T23:08:00.595Z,5.45
2023-03-28T23:10:28.364Z,5.47
2023-03-28T23:12:56.548Z,5.48
2023-03-28T23:15:24.174Z,5.49
2023-03-28T23:17:52.730Z,5.51
2023-03-28T23:20:20.444Z,5.51
2023-03-28T23:22:48.467Z,5.53
2023-03-28T23:25:16.191Z,5.54
2023-03-28T23:27:44.355Z,5.57
2023-03-28T23:30:12.322Z,5.56
2023-03-28T23:32:40.111Z,5.57
2023-03-28T23:35:07.797Z,5.59
2023-03-28T23:37:38.397Z,5.59
2023-03-28T23:40:10.676Z,5.60
2023-03-28T23:42:38.417Z,5.60
2023-03-28T23:45:06.118Z,5.60
2023-03-28T23:47:33.844Z,5.60
2023-03-28T23:50:01.562Z,5.58
2023-03-28T23:52:29.167Z,5.58
2023-03-28T23:54:57.222Z,5.57
2023-03-28T23:57:25.423Z,5.57
2023-03-28T23:59:53.090Z,5.56
